sensor_id;sensor_type;location;lat;lon;timestamp;pressure;altitude;pressure_sealevel;temperature;humidity
57616;BME280;43816;52.054;-9.494;2023-06-26T00:00:04;101254.19;;;27.90;32.89
57616;BME280;43816;52.054;-9.494;2023-06-26T00:00:15;101259.94;;;27.95;32.69
57616;BME280;43816;52.054;-9.494;2023-06-26T00:00:25;101243.16;;;27.83;32.65
57616;BME280;43816;52.054;-9.494;2023-06-26T00:00:36;101231.06;;;27.78;32.84
57616;BME280;43816;52.054;-9.494;2023-06-26T00:00:46;101239.78;;;27.81;32.86
57616;BME280;43816;52.054;-9.494;2023-06-26T00:00:56;101251.63;;;27.88;32.91
57616;BME280;43816;52.054;-9.494;2023-06-26T00:01:07;101227.88;;;27.74;32.66
57616;BME280;43816;52.054;-9.494;2023-06-26T00:01:17;101244.00;;;27.84;32.69
57616;BME280;43816;52.054;-9.494;2023-06-26T00:01:28;101251.63;;;27.88;32.72
57616;BME280;43816;52.054;-9.494;2023-06-26T00:01:38;101227.00;;;27.80;32.85
57616;BME280;43816;52.054;-9.494;2023-06-26T00:01:48;101240.22;;;27.78;32.80
57616;BME280;43816;52.054;-9.494;2023-06-26T00:01:59;101233.38;;;27.81;32.70
57616;BME280;43816;52.054;-9.494;2023-06-26T00:02:09;101251.00;;;27.93;32.74
57616;BME280;43816;52.054;-9.494;2023-06-26T00:02:20;101230.41;;;27.82;32.72
57616;BME280;43816;52.054;-9.494;2023-06-26T00:02:30;101220.88;;;27.78;32.86
57616;BME280;43816;52.054;-9.494;2023-06-26T00:02:40;101226.63;;;27.77;32.82
57616;BME280;43816;52.054;-9.494;2023-06-26T00:02:51;101255.88;;;27.91;32.38
57616;BME280;43816;52.054;-9.494;2023-06-26T00:03:02;101238.91;;;27.81;32.78
57616;BME280;43816;52.054;-9.494;2023-06-26T00:03:12;101249.72;;;27.89;32.89
57616;BME280;43816;52.054;-9.494;2023-06-26T00:03:23;101237.03;;;27.81;33.04
57616;BME280;43816;52.054;-9.494;2023-06-26T00:03:33;101248.88;;;27.88;32.83
57616;BME280;43816;52.054;-9.494;2023-06-26T00:03:43;101257.56;;;27.92;32.71
57616;BME280;43816;52.054;-9.494;2023-06-26T00:03:54;101252.25;;;27.91;32.74
57616;BME280;43816;52.054;-9.494;2023-06-26T00:04:04;101260.34;;;27.92;32.61
57616;BME280;43816;52.054;-9.494;2023-06-26T00:04:14;101241.25;;;27.84;32.78
57616;BME280;43816;52.054;-9.494;2023-06-26T00:04:25;101249.94;;;27.87;32.54
57616;BME280;43816;52.054;-9.494;2023-06-26T00:04:35;101244.00;;;27.84;32.64
57616;BME280;43816;52.054;-9.494;2023-06-26T00:04:45;101253.78;;;27.86;32.97
57616;BME280;43816;52.054;-9.494;2023-06-26T00:04:56;101246.56;;;27.85;32.75
57616;BME280;43816;52.054;-9.494;2023-06-26T00:05:06;101250.16;;;27.86;32.69
57616;BME280;43816;52.054;-9.494;2023-06-26T00:05:17;101246.56;;;27.85;32.69
57616;BME280;43816;52.054;-9.494;2023-06-26T00:05:27;101242.53;;;27.81;32.66
57616;BME280;43816;52.054;-9.494;2023-06-26T00:05:38;101250.81;;;27.88;32.87
57616;BME280;43816;52.054;-9.494;2023-06-26T00:05:48;101249.09;;;27.87;32.69
57616;BME280;43816;52.054;-9.494;2023-06-26T00:05:58;101249.09;;;27.87;32.68
57616;BME280;43816;52.054;-9.494;2023-06-26T00:06:09;101258.88;;;27.90;32.61
57616;BME280;43816;52.054;-9.494;2023-06-26T00:06:19;101226.84;;;27.75;32.85
57616;BME280;43816;52.054;-9.494;2023-06-26T00:06:29;101253.34;;;27.90;32.91
57616;BME280;43816;52.054;-9.494;2023-06-26T00:06:41;101252.69;;;27.87;32.88
57616;BME280;43816;52.054;-9.494;2023-06-26T00:06:51;101239.34;;;27.78;32.88
57616;BME280;43816;52.054;-9.494;2023-06-26T00:07:01;101250.38;;;27.84;32.79
57616;BME280;43816;52.054;-9.494;2023-06-26T00:07:12;101253.38;;;27.83;32.70
57616;BME280;43816;52.054;-9.494;2023-06-26T00:07:22;101255.91;;;27.84;32.76
57616;BME280;43816;52.054;-9.494;2023-06-26T00:07:33;101228.78;;;27.68;32.76
57616;BME280;43816;52.054;-9.494;2023-06-26T00:07:43;101250.63;;;27.83;32.68
57616;BME280;43816;52.054;-9.494;2023-06-26T00:07:53;101251.28;;;27.78;32.66
57616;BME280;43816;52.054;-9.494;2023-06-26T00:08:04;101258.44;;;27.86;32.77
57616;BME280;43816;52.054;-9.494;2023-06-26T00:08:14;101243.59;;;27.80;32.59
57616;BME280;43816;52.054;-9.494;2023-06-26T00:08:24;101251.69;;;27.82;32.59
57616;BME280;43816;52.054;-9.494;2023-06-26T00:08:35;101254.44;;;27.82;32.73
57616;BME280;43816;52.054;-9.494;2023-06-26T00:08:45;101247.63;;;27.78;32.68
57616;BME280;43816;52.054;-9.494;2023-06-26T00:08:56;101252.13;;;27.79;32.58
57616;BME280;43816;52.054;-9.494;2023-06-26T00:09:07;101241.50;;;27.76;32.66
57616;BME280;43816;52.054;-9.494;2023-06-26T00:09:17;101253.81;;;27.80;32.90
57616;BME280;43816;52.054;-9.494;2023-06-26T00:09:28;101244.88;;;27.78;32.65
57616;BME280;43816;52.054;-9.494;2023-06-26T00:09:38;101238.53;;;27.71;32.63
57616;BME280;43816;52.054;-9.494;2023-06-26T00:09:48;101263.13;;;27.85;32.50
57616;BME280;43816;52.054;-9.494;2023-06-26T00:09:59;101238.94;;;27.74;32.67
57616;BME280;43816;52.054;-9.494;2023-06-26T00:10:10;101272.28;;;27.86;32.63
57616;BME280;43816;52.054;-9.494;2023-06-26T00:10:20;101267.84;;;27.85;32.67
57616;BME280;43816;52.054;-9.494;2023-06-26T00:10:30;101257.44;;;27.80;32.66
57616;BME280;43816;52.054;-9.494;2023-06-26T00:10:41;101256.59;;;27.80;32.99
57616;BME280;43816;52.054;-9.494;2023-06-26T00:10:51;101266.13;;;27.84;32.80
57616;BME280;43816;52.054;-9.494;2023-06-26T00:11:01;101269.50;;;27.86;32.41
57616;BME280;43816;52.054;-9.494;2023-06-26T00:11:12;101244.69;;;27.73;32.75
57616;BME280;43816;52.054;-9.494;2023-06-26T00:11:22;101266.13;;;27.84;32.80
57616;BME280;43816;52.054;-9.494;2023-06-26T00:11:33;101262.31;;;27.85;32.89
57616;BME280;43816;52.054;-9.494;2023-06-26T00:11:43;101268.66;;;27.85;32.70
57616;BME280;43816;52.054;-9.494;2023-06-26T00:11:54;101253.41;;;27.76;32.78
57616;BME280;43816;52.054;-9.494;2023-06-26T00:12:04;101267.22;;;27.83;32.58
57616;BME280;43816;52.054;-9.494;2023-06-26T00:12:15;101258.47;;;27.79;32.83
57616;BME280;43816;52.054;-9.494;2023-06-26T00:12:26;101252.78;;;27.74;32.71
57616;BME280;43816;52.054;-9.494;2023-06-26T00:12:36;101238.97;;;27.67;32.78
57616;BME280;43816;52.054;-9.494;2023-06-26T00:12:46;101268.25;;;27.82;32.55
57616;BME280;43816;52.054;-9.494;2023-06-26T00:12:57;101269.72;;;27.84;32.76
57616;BME280;43816;52.054;-9.494;2023-06-26T00:13:07;101237.72;;;27.70;32.88
57616;BME280;43816;52.054;-9.494;2023-06-26T00:13:18;101271.66;;;27.84;32.97
57616;BME280;43816;52.054;-9.494;2023-06-26T00:13:28;101265.28;;;27.83;32.84
57616;BME280;43816;52.054;-9.494;2023-06-26T00:13:38;101252.78;;;27.74;32.75
57616;BME280;43816;52.054;-9.494;2023-06-26T00:13:49;101255.75;;;27.73;32.73
57616;BME280;43816;52.054;-9.494;2023-06-26T00:14:00;101258.69;;;27.78;32.81
57616;BME280;43816;52.054;-9.494;2023-06-26T00:14:10;101260.41;;;27.79;32.96
57616;BME280;43816;52.054;-9.494;2023-06-26T00:14:21;101276.34;;;27.83;32.76
57616;BME280;43816;52.054;-9.494;2023-06-26T00:14:31;101263.78;;;27.81;32.71
57616;BME280;43816;52.054;-9.494;2023-06-26T00:14:41;101255.31;;;27.76;32.74
57616;BME280;43816;52.054;-9.494;2023-06-26T00:14:52;101231.81;;;27.60;32.85
57616;BME280;43816;52.054;-9.494;2023-06-26T00:15:03;101264.88;;;27.80;32.98
57616;BME280;43816;52.054;-9.494;2023-06-26T00:15:13;101243.44;;;27.68;32.68
57616;BME280;43816;52.054;-9.494;2023-06-26T00:15:24;101263.16;;;27.79;32.74
57616;BME280;43816;52.054;-9.494;2023-06-26T00:15:34;101247.06;;;27.69;32.55
57616;BME280;43816;52.054;-9.494;2023-06-26T00:15:44;101216.13;;;27.47;32.50
57616;BME280;43816;52.054;-9.494;2023-06-26T00:15:55;101237.75;;;27.63;32.74
57616;BME280;43816;52.054;-9.494;2023-06-26T00:16:05;101254.25;;;27.77;32.65
57616;BME280;43816;52.054;-9.494;2023-06-26T00:16:15;101238.97;;;27.67;32.68
57616;BME280;43816;52.054;-9.494;2023-06-26T00:16:26;101261.47;;;27.78;32.88
57616;BME280;43816;52.054;-9.494;2023-06-26T00:16:37;101266.16;;;27.77;32.79
57616;BME280;43816;52.054;-9.494;2023-06-26T00:16:47;101261.25;;;27.79;32.74
57616;BME280;43816;52.054;-9.494;2023-06-26T00:16:58;101255.53;;;27.74;32.69
57616;BME280;43816;52.054;-9.494;2023-06-26T00:17:08;101268.47;;;27.80;32.79
57616;BME280;43816;52.054;-9.494;2023-06-26T00:17:18;101250.22;;;27.73;32.63
57616;BME280;43816;52.054;-9.494;2023-06-26T00:17:29;101267.88;;;27.78;33.01
57616;BME280;43816;52.054;-9.494;2023-06-26T00:17:39;101268.69;;;27.79;32.78
57616;BME280;43816;52.054;-9.494;2023-06-26T00:17:49;101250.44;;;27.71;32.61
57616;BME280;43816;52.054;-9.494;2023-06-26T00:18:00;101258.50;;;27.73;32.45
57616;BME280;43816;52.054;-9.494;2023-06-26T00:18:10;101261.94;;;27.75;32.32
57616;BME280;43816;52.054;-9.494;2023-06-26T00:18:21;101265.94;;;27.79;32.66
57616;BME280;43816;52.054;-9.494;2023-06-26T00:18:31;101267.00;;;27.78;32.60
57616;BME280;43816;52.054;-9.494;2023-06-26T00:18:41;101265.75;;;27.74;32.71
57616;BME280;43816;52.054;-9.494;2023-06-26T00:18:53;101263.38;;;27.77;32.58
57616;BME280;43816;52.054;-9.494;2023-06-26T00:19:03;101269.53;;;27.79;32.60
57616;BME280;43816;52.054;-9.494;2023-06-26T00:19:14;101270.00;;;27.76;32.72
57616;BME280;43816;52.054;-9.494;2023-06-26T00:19:24;101267.00;;;27.78;32.68
57616;BME280;43816;52.054;-9.494;2023-06-26T00:19:34;101264.47;;;27.76;32.66
57616;BME280;43816;52.054;-9.494;2023-06-26T00:19:45;101248.56;;;27.65;32.87
57616;BME280;43816;52.054;-9.494;2023-06-26T00:19:55;101269.53;;;27.79;32.56
57616;BME280;43816;52.054;-9.494;2023-06-26T00:20:06;101267.25;;;27.76;32.51
57616;BME280;43816;52.054;-9.494;2023-06-26T00:20:16;101263.41;;;27.71;32.45
57616;BME280;43816;52.054;-9.494;2023-06-26T00:20:27;101263.19;;;27.72;32.80
57616;BME280;43816;52.054;-9.494;2023-06-26T00:20:37;101265.75;;;27.74;32.74
57616;BME280;43816;52.054;-9.494;2023-06-26T00:20:48;101259.59;;;27.72;33.09
57616;BME280;43816;52.054;-9.494;2023-06-26T00:20:58;101247.09;;;27.62;32.59
57616;BME280;43816;52.054;-9.494;2023-06-26T00:21:08;101264.91;;;27.73;32.67
57616;BME280;43816;52.054;-9.494;2023-06-26T00:21:19;101278.06;;;27.78;32.59
57616;BME280;43816;52.054;-9.494;2023-06-26T00:21:29;101262.81;;;27.68;32.55
57616;BME280;43816;52.054;-9.494;2023-06-26T00:21:40;101255.56;;;27.67;32.76
57616;BME280;43816;52.054;-9.494;2023-06-26T00:21:50;101266.59;;;27.74;32.50
57616;BME280;43816;52.054;-9.494;2023-06-26T00:22:00;101252.19;;;27.65;32.84
57616;BME280;43816;52.054;-9.494;2023-06-26T00:22:11;101254.31;;;27.63;32.66
57616;BME280;43816;52.054;-9.494;2023-06-26T00:22:21;101254.09;;;27.65;32.64
57616;BME280;43816;52.054;-9.494;2023-06-26T00:22:32;101258.97;;;27.69;32.90
57616;BME280;43816;52.054;-9.494;2023-06-26T00:22:42;101238.59;;;27.57;32.80
57616;BME280;43816;52.054;-9.494;2023-06-26T00:22:53;101270.84;;;27.77;32.71
57616;BME280;43816;52.054;-9.494;2023-06-26T00:23:03;101263.19;;;27.72;32.90
57616;BME280;43816;52.054;-9.494;2023-06-26T00:23:16;101254.53;;;27.62;32.74
57616;BME280;43816;52.054;-9.494;2023-06-26T00:23:27;101267.69;;;27.73;32.79
57616;BME280;43816;52.054;-9.494;2023-06-26T00:23:37;101269.13;;;27.76;32.96
57616;BME280;43816;52.054;-9.494;2023-06-26T00:23:47;101255.56;;;27.67;32.43
57616;BME280;43816;52.054;-9.494;2023-06-26T00:23:58;101262.78;;;27.75;32.57
57616;BME280;43816;52.054;-9.494;2023-06-26T00:24:08;101260.66;;;27.71;32.71
57616;BME280;43816;52.054;-9.494;2023-06-26T00:24:18;101261.09;;;27.67;32.63
57616;BME280;43816;52.054;-9.494;2023-06-26T00:24:29;101273.81;;;27.75;32.75
57616;BME280;43816;52.054;-9.494;2023-06-26T00:24:39;101257.28;;;27.68;32.81
57616;BME280;43816;52.054;-9.494;2023-06-26T00:24:50;101265.56;;;27.68;32.69
57616;BME280;43816;52.054;-9.494;2023-06-26T00:25:00;101264.03;;;27.73;32.60
57616;BME280;43816;52.054;-9.494;2023-06-26T00:25:11;101257.72;;;27.65;32.87
57616;BME280;43816;52.054;-9.494;2023-06-26T00:25:21;101257.50;;;27.67;32.79
57616;BME280;43816;52.054;-9.494;2023-06-26T00:25:31;101257.72;;;27.65;32.94
57616;BME280;43816;52.054;-9.494;2023-06-26T00:25:42;101257.91;;;27.64;32.76
57616;BME280;43816;52.054;-9.494;2023-06-26T00:25:53;101275.09;;;27.73;32.62
57616;BME280;43816;52.054;-9.494;2023-06-26T00:26:04;101268.94;;;27.71;32.47
57616;BME280;43816;52.054;-9.494;2023-06-26T00:26:17;101239.03;;;27.54;32.83
57616;BME280;43816;52.054;-9.494;2023-06-26T00:26:28;101254.09;;;27.65;32.57
57616;BME280;43816;52.054;-9.494;2023-06-26T00:26:38;101243.50;;;27.55;32.74
57616;BME280;43816;52.054;-9.494;2023-06-26T00:26:49;101254.31;;;27.63;32.70
57616;BME280;43816;52.054;-9.494;2023-06-26T00:26:59;101254.31;;;27.63;32.79
57616;BME280;43816;52.054;-9.494;2023-06-26T00:27:09;101263.63;;;27.69;32.59
57616;BME280;43816;52.054;-9.494;2023-06-26T00:27:20;101271.72;;;27.71;32.73
57616;BME280;43816;52.054;-9.494;2023-06-26T00:27:30;101259.41;;;27.66;32.55
57616;BME280;43816;52.054;-9.494;2023-06-26T00:27:41;101259.22;;;27.61;32.83
57616;BME280;43816;52.054;-9.494;2023-06-26T00:27:51;101245.19;;;27.56;32.80
57616;BME280;43816;52.054;-9.494;2023-06-26T00:28:01;101264.50;;;27.69;32.70
57616;BME280;43816;52.054;-9.494;2023-06-26T00:28:12;101267.28;;;27.69;32.74
57616;BME280;43816;52.054;-9.494;2023-06-26T00:28:22;101271.72;;;27.71;32.91
57616;BME280;43816;52.054;-9.494;2023-06-26T00:28:33;101261.53;;;27.64;32.85
57616;BME280;43816;52.054;-9.494;2023-06-26T00:28:43;101245.84;;;27.58;32.58
57616;BME280;43816;52.054;-9.494;2023-06-26T00:28:53;101271.72;;;27.71;32.59
57616;BME280;43816;52.054;-9.494;2023-06-26T00:29:04;101264.50;;;27.69;32.74
57616;BME280;43816;52.054;-9.494;2023-06-26T00:29:15;101262.63;;;27.63;32.71
57616;BME280;43816;52.054;-9.494;2023-06-26T00:29:25;101264.28;;;27.64;32.62
57616;BME280;43816;52.054;-9.494;2023-06-26T00:29:36;101262.81;;;27.68;32.60
57616;BME280;43816;52.054;-9.494;2023-06-26T00:29:46;101269.78;;;27.71;32.60
57616;BME280;43816;52.054;-9.494;2023-06-26T00:29:56;101270.03;;;27.69;32.81
57616;BME280;43816;52.054;-9.494;2023-06-26T00:30:07;101250.50;;;27.58;33.01
57616;BME280;43816;52.054;-9.494;2023-06-26T00:30:18;101247.94;;;27.56;32.75
57616;BME280;43816;52.054;-9.494;2023-06-26T00:30:28;101242.03;;;27.53;32.60
57616;BME280;43816;52.054;-9.494;2023-06-26T00:30:39;101263.63;;;27.69;32.67
57616;BME280;43816;52.054;-9.494;2023-06-26T00:30:49;101252.44;;;27.57;32.63
57616;BME280;43816;52.054;-9.494;2023-06-26T00:31:00;101261.09;;;27.67;32.52
57616;BME280;43816;52.054;-9.494;2023-06-26T00:31:10;101271.31;;;27.67;32.79
57616;BME280;43816;52.054;-9.494;2023-06-26T00:31:20;101260.28;;;27.60;32.88
57616;BME280;43816;52.054;-9.494;2023-06-26T00:31:31;101244.16;;;27.50;32.72
57616;BME280;43816;52.054;-9.494;2023-06-26T00:31:41;101268.75;;;27.65;32.98
57616;BME280;43816;52.054;-9.494;2023-06-26T00:31:52;101251.81;;;27.55;32.67
57616;BME280;43816;52.054;-9.494;2023-06-26T00:32:02;101264.28;;;27.64;32.80
57616;BME280;43816;52.054;-9.494;2023-06-26T00:32:13;101258.34;;;27.61;32.67
57616;BME280;43816;52.054;-9.494;2023-06-26T00:32:23;101252.63;;;27.56;33.09
57616;BME280;43816;52.054;-9.494;2023-06-26T00:32:34;101268.97;;;27.64;32.77
57616;BME280;43816;52.054;-9.494;2023-06-26T00:32:44;101249.47;;;27.52;32.64
57616;BME280;43816;52.054;-9.494;2023-06-26T00:32:54;101262.00;;;27.61;32.85
57616;BME280;43816;52.054;-9.494;2023-06-26T00:33:05;101251.19;;;27.53;32.88
57616;BME280;43816;52.054;-9.494;2023-06-26T00:33:15;101263.44;;;27.64;32.85
57616;BME280;43816;52.054;-9.494;2023-06-26T00:33:25;101248.19;;;27.55;32.89
57616;BME280;43816;52.054;-9.494;2023-06-26T00:33:36;101267.94;;;27.65;32.61
57616;BME280;43816;52.054;-9.494;2023-06-26T00:33:46;101248.41;;;27.53;32.84
57616;BME280;43816;52.054;-9.494;2023-06-26T00:33:56;101238.22;;;27.47;32.75
57616;BME280;43816;52.054;-9.494;2023-06-26T00:34:07;101274.28;;;27.65;32.70
57616;BME280;43816;52.054;-9.494;2023-06-26T00:34:17;101248.41;;;27.53;32.66
57616;BME280;43816;52.054;-9.494;2023-06-26T00:34:28;101261.34;;;27.59;32.57
57616;BME280;43816;52.054;-9.494;2023-06-26T00:34:38;101269.81;;;27.64;32.87
57616;BME280;43816;52.054;-9.494;2023-06-26T00:34:48;101250.09;;;27.54;32.90
57616;BME280;43816;52.054;-9.494;2023-06-26T00:34:59;101245.00;;;27.51;32.53
57616;BME280;43816;52.054;-9.494;2023-06-26T00:35:09;101264.28;;;27.64;32.88
57616;BME280;43816;52.054;-9.494;2023-06-26T00:35:19;101267.06;;;27.64;32.93
57616;BME280;43816;52.054;-9.494;2023-06-26T00:35:30;101268.13;;;27.63;32.79
57616;BME280;43816;52.054;-9.494;2023-06-26T00:35:40;101253.47;;;27.56;32.77
57616;BME280;43816;52.054;-9.494;2023-06-26T00:35:50;101267.06;;;27.64;32.70
57616;BME280;43816;52.054;-9.494;2023-06-26T00:36:01;101261.13;;;27.61;32.56
57616;BME280;43816;52.054;-9.494;2023-06-26T00:36:11;101245.44;;;27.55;32.91
57616;BME280;43816;52.054;-9.494;2023-06-26T00:36:21;101266.22;;;27.64;33.03
57616;BME280;43816;52.054;-9.494;2023-06-26T00:36:32;101265.59;;;27.62;32.37
57616;BME280;43816;52.054;-9.494;2023-06-26T00:36:42;101262.00;;;27.61;32.62
57616;BME280;43816;52.054;-9.494;2023-06-26T00:36:52;101270.91;;;27.63;32.95
57616;BME280;43816;52.054;-9.494;2023-06-26T00:37:03;101268.56;;;27.60;32.81
57616;BME280;43816;52.054;-9.494;2023-06-26T00:37:13;101263.66;;;27.62;32.72
57616;BME280;43816;52.054;-9.494;2023-06-26T00:37:23;101265.38;;;27.63;32.96
57616;BME280;43816;52.054;-9.494;2023-06-26T00:37:34;101270.06;;;27.63;32.74
57616;BME280;43816;52.054;-9.494;2023-06-26T00:37:44;101253.47;;;27.56;32.51
57616;BME280;43816;52.054;-9.494;2023-06-26T00:37:54;101254.38;;;27.50;32.87
57616;BME280;43816;52.054;-9.494;2023-06-26T00:38:05;101281.97;;;27.63;32.70
57616;BME280;43816;52.054;-9.494;2023-06-26T00:38:15;101267.53;;;27.61;32.59
57616;BME280;43816;52.054;-9.494;2023-06-26T00:38:26;101261.34;;;27.59;32.51
57616;BME280;43816;52.054;-9.494;2023-06-26T00:38:36;101253.94;;;27.53;32.71
57616;BME280;43816;52.054;-9.494;2023-06-26T00:38:46;101272.38;;;27.59;32.44
57616;BME280;43816;52.054;-9.494;2023-06-26T00:38:56;101225.09;;;27.36;32.91
57616;BME280;43816;52.054;-9.494;2023-06-26T00:39:07;101267.53;;;27.61;32.85
57616;BME280;43816;52.054;-9.494;2023-06-26T00:39:17;101259.88;;;27.57;32.72
57616;BME280;43816;52.054;-9.494;2023-06-26T00:39:27;101257.75;;;27.52;32.72
57616;BME280;43816;52.054;-9.494;2023-06-26T00:39:38;101244.19;;;27.44;32.83
57616;BME280;43816;52.054;-9.494;2023-06-26T00:39:48;101232.72;;;27.40;32.85
57616;BME280;43816;52.054;-9.494;2023-06-26T00:39:58;101252.84;;;27.54;32.93
57616;BME280;43816;52.054;-9.494;2023-06-26T00:40:09;101261.16;;;27.54;32.88
57616;BME280;43816;52.054;-9.494;2023-06-26T00:40:19;101235.28;;;27.42;32.77
57616;BME280;43816;52.054;-9.494;2023-06-26T00:40:30;101271.34;;;27.60;32.65
57616;BME280;43816;52.054;-9.494;2023-06-26T00:40:40;101269.22;;;27.56;32.70
57616;BME280;43816;52.054;-9.494;2023-06-26T00:40:50;101249.69;;;27.50;32.72
57616;BME280;43816;52.054;-9.494;2023-06-26T00:41:01;101261.38;;;27.53;32.98
57616;BME280;43816;52.054;-9.494;2023-06-26T00:41:11;101266.25;;;27.57;32.66
57616;BME280;43816;52.054;-9.494;2023-06-26T00:41:21;101251.84;;;27.48;32.88
57616;BME280;43816;52.054;-9.494;2023-06-26T00:41:32;101267.94;;;27.58;32.86
57616;BME280;43816;52.054;-9.494;2023-06-26T00:41:42;101264.34;;;27.51;32.63
57616;BME280;43816;52.054;-9.494;2023-06-26T00:41:52;101275.38;;;27.58;32.77
57616;BME280;43816;52.054;-9.494;2023-06-26T00:42:03;101274.75;;;27.56;32.69
57616;BME280;43816;52.054;-9.494;2023-06-26T00:42:13;101259.47;;;27.53;32.47
57616;BME280;43816;52.054;-9.494;2023-06-26T00:42:23;101256.28;;;27.49;32.68
57616;BME280;43816;52.054;-9.494;2023-06-26T00:42:34;101252.03;;;27.47;32.67
57616;BME280;43816;52.054;-9.494;2023-06-26T00:42:44;101234.22;;;27.36;32.69
57616;BME280;43816;52.054;-9.494;2023-06-26T00:42:54;101253.09;;;27.46;32.23
57616;BME280;43816;52.054;-9.494;2023-06-26T00:43:05;101248.88;;;27.43;32.61
57616;BME280;43816;52.054;-9.494;2023-06-26T00:43:15;101274.53;;;27.57;32.48
57616;BME280;43816;52.054;-9.494;2023-06-26T00:43:25;101260.75;;;27.50;33.00
57616;BME280;43816;52.054;-9.494;2023-06-26T00:43:36;101249.72;;;27.44;32.58
57616;BME280;43816;52.054;-9.494;2023-06-26T00:43:46;101276.47;;;27.57;32.72
57616;BME280;43816;52.054;-9.494;2023-06-26T00:43:56;101245.91;;;27.45;33.11
57616;BME280;43816;52.054;-9.494;2023-06-26T00:44:07;101257.13;;;27.50;32.76
57616;BME280;43816;52.054;-9.494;2023-06-26T00:44:17;101247.59;;;27.39;32.76
57616;BME280;43816;52.054;-9.494;2023-06-26T00:44:27;101266.28;;;27.50;32.73
57616;BME280;43816;52.054;-9.494;2023-06-26T00:44:38;101275.59;;;27.56;33.02
57616;BME280;43816;52.054;-9.494;2023-06-26T00:44:48;101273.06;;;27.55;32.75
57616;BME280;43816;52.054;-9.494;2023-06-26T00:44:58;101261.38;;;27.53;32.82
57616;BME280;43816;52.054;-9.494;2023-06-26T00:45:09;101249.09;;;27.42;32.83
57616;BME280;43816;52.054;-9.494;2023-06-26T00:45:19;101254.38;;;27.50;32.88
57616;BME280;43816;52.054;-9.494;2023-06-26T00:45:29;101263.09;;;27.47;32.84
57616;BME280;43816;52.054;-9.494;2023-06-26T00:45:40;101257.34;;;27.48;32.80
57616;BME280;43816;52.054;-9.494;2023-06-26T00:45:50;101269.44;;;27.54;32.58
57616;BME280;43816;52.054;-9.494;2023-06-26T00:46:00;101275.19;;;27.53;32.88
57616;BME280;43816;52.054;-9.494;2023-06-26T00:46:13;101275.19;;;27.53;32.47
57616;BME280;43816;52.054;-9.494;2023-06-26T00:46:23;101266.88;;;27.53;32.94
57616;BME280;43816;52.054;-9.494;2023-06-26T00:46:34;101250.56;;;27.44;32.99
57616;BME280;43816;52.054;-9.494;2023-06-26T00:46:45;101265.84;;;27.54;32.84
57616;BME280;43816;52.054;-9.494;2023-06-26T00:46:56;101270.53;;;27.53;32.54
57616;BME280;43816;52.054;-9.494;2023-06-26T00:47:14;101258.63;;;27.46;32.81
57616;BME280;43816;52.054;-9.494;2023-06-26T00:47:25;101268.81;;;27.52;32.96
57616;BME280;43816;52.054;-9.494;2023-06-26T00:47:37;101271.59;;;27.52;32.76
57616;BME280;43816;52.054;-9.494;2023-06-26T00:47:48;101273.28;;;27.53;32.59
57616;BME280;43816;52.054;-9.494;2023-06-26T00:47:59;101260.34;;;27.47;32.77
57616;BME280;43816;52.054;-9.494;2023-06-26T00:48:10;101270.75;;;27.52;32.83
57616;BME280;43816;52.054;-9.494;2023-06-26T00:48:21;101272.19;;;27.54;32.87
57616;BME280;43816;52.054;-9.494;2023-06-26T00:48:32;101247.59;;;27.39;32.88
57616;BME280;43816;52.054;-9.494;2023-06-26T00:48:44;101276.06;;;27.53;32.77
57616;BME280;43816;52.054;-9.494;2023-06-26T00:48:59;101276.06;;;27.53;32.74
57616;BME280;43816;52.054;-9.494;2023-06-26T00:49:09;101274.56;;;27.50;32.63
57616;BME280;43816;52.054;-9.494;2023-06-26T00:49:20;101257.81;;;27.39;33.00
57616;BME280;43816;52.054;-9.494;2023-06-26T00:49:30;101276.47;;;27.50;33.04
57616;BME280;43816;52.054;-9.494;2023-06-26T00:49:41;101272.00;;;27.49;33.13
57616;BME280;43816;52.054;-9.494;2023-06-26T00:49:51;101248.03;;;27.36;32.67
57616;BME280;43816;52.054;-9.494;2023-06-26T00:50:02;101277.09;;;27.52;32.84
57616;BME280;43816;52.054;-9.494;2023-06-26T00:50:14;101218.53;;;27.17;32.77
57616;BME280;43816;52.054;-9.494;2023-06-26T00:50:24;101231.72;;;27.21;32.67
57616;BME280;43816;52.054;-9.494;2023-06-26T00:50:35;101232.97;;;27.25;32.82
57616;BME280;43816;52.054;-9.494;2023-06-26T00:50:45;101230.84;;;27.21;32.86
57616;BME280;43816;52.054;-9.494;2023-06-26T00:50:56;101265.03;;;27.40;32.95
57616;BME280;43816;52.054;-9.494;2023-06-26T00:51:07;101232.75;;;27.20;32.84
57616;BME280;43816;52.054;-9.494;2023-06-26T00:51:18;101283.06;;;27.49;32.84
57616;BME280;43816;52.054;-9.494;2023-06-26T00:51:29;101275.84;;;27.48;32.70
57616;BME280;43816;52.054;-9.494;2023-06-26T00:51:40;101274.78;;;27.49;32.72
57616;BME280;43816;52.054;-9.494;2023-06-26T00:51:50;101256.53;;;27.41;32.81
57616;BME280;43816;52.054;-9.494;2023-06-26T00:52:01;101247.22;;;27.29;32.94
57616;BME280;43816;52.054;-9.494;2023-06-26T00:52:12;101261.19;;;27.41;32.80
57616;BME280;43816;52.054;-9.494;2023-06-26T00:52:22;101247.22;;;27.29;32.72
57616;BME280;43816;52.054;-9.494;2023-06-26T00:52:33;101245.94;;;27.31;32.91
57616;BME280;43816;52.054;-9.494;2023-06-26T00:52:44;101281.13;;;27.49;32.68
57616;BME280;43816;52.054;-9.494;2023-06-26T00:52:54;101276.47;;;27.50;33.02
57616;BME280;43816;52.054;-9.494;2023-06-26T00:53:05;101264.19;;;27.39;32.69
57616;BME280;43816;52.054;-9.494;2023-06-26T00:53:19;101227.66;;;27.17;32.92
57616;BME280;43816;52.054;-9.494;2023-06-26T00:53:30;101260.38;;;27.34;32.94
57616;BME280;43816;52.054;-9.494;2023-06-26T00:53:42;101217.91;;;27.08;32.95
57616;BME280;43816;52.054;-9.494;2023-06-26T00:53:52;101241.69;;;27.22;32.83
57616;BME280;43816;52.054;-9.494;2023-06-26T00:54:03;101283.91;;;27.49;32.73
57616;BME280;43816;52.054;-9.494;2023-06-26T00:54:14;101283.06;;;27.49;33.01
57616;BME280;43816;52.054;-9.494;2023-06-26T00:54:24;101287.53;;;27.50;33.01